createdAt,value
2022-12-25T00:01:37.443Z,4.55
2022-12-25T00:06:41.949Z,4.93
2022-12-25T00:11:46.391Z,4.93
2022-12-25T00:16:51.352Z,4.75
2022-12-25T00:21:54.854Z,4.45
2022-12-25T00:26:58.576Z,5.38
2022-12-25T00:32:03.290Z,4.85
2022-12-25T00:37:06.948Z,4.57
2022-12-25T00:42:20.282Z,5.00
2022-12-25T00:52:29.018Z,3.92
2022-12-25T00:57:32.594Z,4.50
2022-12-25T01:02:37.393Z,4.88
2022-12-25T01:07:40.971Z,4.55
2022-12-25T01:12:45.263Z,4.32
2022-12-25T01:17:50.069Z,4.45
2022-12-25T01:22:54.057Z,4.45
2022-12-25T01:27:57.492Z,3.55
2022-12-25T01:33:02.253Z,5.38
2022-12-25T01:38:05.679Z,4.53
2022-12-25T01:43:23.168Z,4.45
2022-12-25T01:48:31.685Z,3.70
2022-12-25T01:53:35.715Z,3.45
2022-12-25T01:58:39.388Z,5.13
2022-12-25T02:03:44.409Z,5.35
2022-12-25T02:08:47.790Z,5.28
2022-12-25T02:13:51.482Z,3.72
2022-12-25T02:19:01.998Z,4.57
2022-12-25T02:24:27.824Z,4.32
2022-12-25T02:29:40.348Z,4.50
2022-12-25T02:34:48.867Z,4.60
2022-12-25T02:40:00.021Z,4.90
2022-12-25T02:45:23.048Z,5.07
2022-12-25T02:50:44.725Z,4.47
2022-12-25T02:56:08.202Z,4.43
2022-12-25T03:01:34.272Z,4.45
2022-12-25T03:06:46.676Z,5.30
2022-12-25T03:11:57.887Z,5.57
2022-12-25T03:17:02.706Z,4.72
2022-12-25T03:22:25.499Z,5.15
2022-12-25T03:27:34.402Z,4.82
2022-12-25T03:32:46.142Z,4.90
2022-12-25T03:38:14.410Z,5.00
2022-12-25T03:43:48.879Z,5.30
2022-12-25T03:49:18.357Z,4.78
2022-12-25T03:54:44.312Z,5.38
2022-12-25T04:00:05.909Z,5.38
2022-12-25T04:05:27.959Z,5.05
2022-12-25T04:10:49.030Z,5.80
2022-12-25T04:16:10.025Z,5.30
2022-12-25T04:21:33.276Z,5.55
2022-12-25T04:26:54.255Z,8.52
2022-12-25T04:32:15.189Z,6.32
2022-12-25T04:37:20.040Z,5.43
2022-12-25T04:42:23.435Z,6.40
2022-12-25T04:47:27.878Z,6.00
2022-12-25T04:52:37.192Z,6.38
2022-12-25T04:57:41.139Z,6.55
2022-12-25T05:02:45.248Z,5.53
2022-12-25T05:07:50.545Z,7.38
2022-12-25T05:12:53.933Z,7.90
2022-12-25T05:17:57.280Z,7.13
2022-12-25T05:23:02.381Z,7.38
2022-12-25T05:28:06.065Z,8.00
2022-12-25T05:33:09.524Z,6.63
2022-12-25T05:38:14.502Z,8.77
2022-12-25T05:43:19.434Z,7.15
2022-12-25T05:48:23.155Z,7.70
2022-12-25T05:53:27.858Z,7.22
2022-12-25T05:58:31.791Z,7.32
2022-12-25T06:03:35.617Z,8.70
2022-12-25T06:08:40.772Z,8.50
2022-12-25T06:13:44.462Z,8.40
2022-12-25T06:18:52.912Z,8.20
2022-12-25T06:23:57.682Z,7.38
2022-12-25T06:29:02.123Z,7.65
2022-12-25T06:34:05.778Z,7.88
2022-12-25T06:39:11.197Z,7.63
2022-12-25T06:44:14.917Z,7.53
2022-12-25T06:49:19.514Z,7.75
2022-12-25T06:54:24.284Z,6.93
2022-12-25T06:59:27.989Z,7.82
2022-12-25T07:04:35.911Z,8.50
2022-12-25T07:09:42.433Z,8.65
2022-12-25T07:14:48.812Z,9.27
2022-12-25T07:19:52.536Z,9.43
2022-12-25T07:24:57.397Z,8.38
2022-12-25T07:30:00.799Z,8.30
2022-12-25T07:35:04.264Z,19.88
2022-12-25T07:40:10.882Z,23.58
2022-12-25T07:45:14.248Z,15.48
2022-12-25T07:50:20.145Z,11.32
2022-12-25T07:55:25.118Z,8.48
2022-12-25T08:00:32.685Z,8.13
2022-12-25T08:05:37.152Z,7.32
2022-12-25T08:10:46.420Z,7.32
2022-12-25T08:15:50.260Z,8.02
2022-12-25T08:20:53.926Z,9.93
2022-12-25T08:26:05.434Z,9.93
2022-12-25T08:31:11.933Z,9.57
2022-12-25T08:36:15.675Z,10.30
2022-12-25T08:41:20.572Z,9.18
2022-12-25T08:46:24.031Z,9.43
2022-12-25T08:51:27.823Z,9.10
2022-12-25T08:56:32.845Z,9.18
2022-12-25T09:01:36.553Z,9.50
2022-12-25T09:06:40.558Z,10.18
2022-12-25T09:11:45.331Z,10.95
2022-12-25T09:16:51.034Z,10.40
2022-12-25T09:21:54.457Z,9.05
2022-12-25T09:26:59.181Z,10.90
2022-12-25T09:32:02.552Z,8.95
2022-12-25T09:37:05.913Z,9.18
2022-12-25T09:42:16.130Z,8.75
2022-12-25T09:47:23.061Z,9.38
2022-12-25T09:52:31.506Z,8.70
2022-12-25T09:57:36.529Z,8.27
2022-12-25T10:03:03.218Z,7.78
2022-12-25T10:08:13.419Z,8.00
2022-12-25T10:13:32.476Z,7.57
2022-12-25T10:18:48.515Z,8.32
2022-12-25T10:23:59.704Z,7.93
2022-12-25T10:29:12.649Z,9.20
2022-12-25T10:34:17.126Z,8.55
2022-12-25T10:39:22.200Z,7.50
2022-12-25T10:44:27.024Z,7.72
2022-12-25T10:49:32.930Z,6.47
2022-12-25T10:54:37.212Z,7.47
2022-12-25T10:59:46.948Z,6.82
2022-12-25T11:04:51.224Z,7.55
2022-12-25T11:10:02.654Z,6.15
2022-12-25T11:15:38.855Z,6.07
2022-12-25T11:20:50.212Z,6.28
2022-12-25T11:25:57.947Z,6.95
2022-12-25T11:31:14.332Z,6.78
2022-12-25T11:36:22.681Z,7.18
2022-12-25T11:41:33.672Z,7.18
2022-12-25T11:46:43.461Z,8.10
2022-12-25T11:51:50.311Z,7.05
2022-12-25T11:56:53.913Z,7.35
2022-12-25T12:02:03.035Z,7.38
2022-12-25T12:07:15.380Z,6.68
2022-12-25T12:12:23.812Z,7.47
2022-12-25T12:17:28.675Z,6.55
2022-12-25T12:22:32.113Z,7.05
2022-12-25T12:27:38.746Z,7.47
2022-12-25T12:32:46.113Z,6.38
2022-12-25T12:37:54.563Z,7.15
2022-12-25T12:42:58.117Z,7.68
2022-12-25T12:48:03.219Z,6.45
2022-12-25T12:53:28.890Z,6.68
2022-12-25T12:58:34.164Z,7.38
2022-12-25T13:04:18.099Z,6.45
2022-12-25T13:09:33.388Z,5.88
2022-12-25T13:14:38.393Z,5.97
2022-12-25T13:19:44.270Z,6.38
2022-12-25T13:24:57.524Z,5.65
2022-12-25T13:35:06.411Z,6.75
2022-12-25T13:40:21.864Z,6.88
2022-12-25T13:45:27.371Z,9.95
2022-12-25T13:50:34.418Z,12.52
2022-12-25T13:55:38.133Z,10.07
2022-12-25T14:00:48.195Z,10.95
2022-12-25T14:05:59.250Z,11.65
2022-12-25T14:11:05.748Z,9.73
2022-12-25T14:16:10.725Z,8.82
2022-12-25T14:21:23.461Z,7.80
2022-12-25T14:26:29.482Z,7.43
2022-12-25T14:31:33.808Z,7.35
2022-12-25T14:36:39.278Z,8.60
2022-12-25T14:41:42.677Z,9.35
2022-12-25T14:46:46.119Z,9.63
2022-12-25T14:51:51.483Z,9.38
2022-12-25T14:56:56.385Z,9.77
2022-12-25T15:02:01.160Z,11.30
2022-12-25T15:07:09.689Z,11.05
2022-12-25T15:12:13.895Z,13.43
2022-12-25T15:17:26.278Z,15.05
2022-12-25T15:22:54.083Z,15.52
2022-12-25T15:27:54.755Z,12.32
2022-12-25T15:32:58.200Z,12.45
2022-12-25T15:38:03.194Z,12.27
2022-12-25T15:43:14.366Z,13.20
2022-12-25T15:48:25.906Z,13.68
2022-12-25T15:53:30.674Z,14.23
2022-12-25T15:58:34.127Z,14.45
2022-12-25T16:03:37.505Z,16.05
2022-12-25T16:08:43.056Z,18.02
2022-12-25T16:13:46.472Z,17.05
2022-12-25T16:18:50.697Z,14.98
2022-12-25T16:23:55.416Z,15.43
2022-12-25T16:29:03.591Z,15.05
2022-12-25T16:34:10.542Z,15.23
2022-12-25T16:39:15.284Z,17.13
2022-12-25T16:44:18.726Z,17.60
2022-12-25T16:49:22.140Z,18.02
2022-12-25T16:54:26.988Z,19.35
2022-12-25T16:59:31.176Z,18.40
2022-12-25T17:04:34.555Z,18.10
2022-12-25T17:09:44.065Z,19.02
2022-12-25T17:14:49.329Z,16.52
2022-12-25T17:19:52.954Z,14.98
2022-12-25T17:24:57.776Z,15.98
2022-12-25T17:30:01.202Z,16.23
2022-12-25T17:35:04.959Z,16.65
2022-12-25T17:40:11.498Z,15.95
2022-12-25T17:45:15.009Z,16.75
2022-12-25T17:50:19.039Z,15.65
2022-12-25T17:55:23.838Z,19.48
2022-12-25T18:00:27.243Z,18.95
2022-12-25T18:05:30.654Z,18.20
2022-12-25T18:10:38.696Z,18.50
2022-12-25T18:15:42.649Z,19.13
2022-12-25T18:20:46.023Z,18.92
2022-12-25T18:25:51.546Z,21.50
2022-12-25T18:30:54.916Z,19.38
2022-12-25T18:35:59.926Z,20.17
2022-12-25T18:41:08.088Z,18.38
2022-12-25T18:46:11.819Z,19.45
2022-12-25T18:51:15.694Z,19.40
2022-12-25T18:56:20.939Z,19.60
2022-12-25T19:01:26.305Z,19.80
2022-12-25T19:06:33.188Z,18.30
2022-12-25T19:11:44.008Z,16.98
2022-12-25T19:16:50.399Z,17.92
2022-12-25T19:21:54.148Z,19.63
2022-12-25T19:26:58.872Z,17.00
2022-12-25T19:32:02.320Z,19.15
2022-12-25T19:37:05.992Z,16.63
2022-12-25T19:42:10.731Z,18.67
2022-12-25T19:47:14.173Z,17.77
2022-12-25T19:52:17.581Z,17.48
2022-12-25T19:57:22.340Z,17.75
2022-12-25T20:02:25.886Z,17.33
2022-12-25T20:07:29.400Z,16.83
2022-12-25T20:12:34.161Z,16.88
2022-12-25T20:17:37.555Z,16.88
2022-12-25T20:22:41.434Z,17.83
2022-12-25T20:27:46.361Z,17.17
2022-12-25T20:32:50.726Z,16.65
2022-12-25T20:37:54.628Z,14.75
2022-12-25T20:42:59.375Z,14.25
2022-12-25T20:48:05.118Z,14.07
2022-12-25T20:53:08.521Z,13.55
2022-12-25T20:58:13.780Z,15.90
2022-12-25T21:03:17.633Z,13.65
2022-12-25T21:08:26.080Z,13.30
2022-12-25T21:13:32.625Z,13.73
2022-12-25T21:18:36.263Z,13.45
2022-12-25T21:23:41.459Z,11.85
2022-12-25T21:28:46.391Z,10.43
2022-12-25T21:33:52.928Z,10.63
2022-12-25T21:38:58.361Z,10.00
2022-12-25T21:44:03.575Z,9.77
2022-12-25T21:49:07.071Z,10.63
2022-12-25T21:54:11.259Z,10.70
2022-12-25T21:59:17.957Z,10.63
2022-12-25T22:04:23.027Z,11.50
2022-12-25T22:09:27.507Z,10.00
2022-12-25T22:14:56.251Z,10.82
2022-12-25T22:20:01.107Z,10.55
2022-12-25T22:25:06.546Z,10.50
2022-12-25T22:30:14.219Z,11.40
2022-12-25T22:35:18.117Z,12.70
2022-12-25T22:40:22.088Z,13.52
2022-12-25T22:45:27.103Z,14.88
2022-12-25T22:50:30.514Z,13.68
2022-12-25T22:55:33.932Z,14.98
2022-12-25T23:00:45.941Z,16.38
2022-12-25T23:05:55.426Z,14.25
2022-12-25T23:11:02.987Z,15.70
2022-12-25T23:16:13.660Z,15.27
2022-12-25T23:21:35.896Z,12.85
2022-12-25T23:26:39.302Z,12.52
2022-12-25T23:31:44.456Z,13.45
2022-12-25T23:36:47.867Z,13.07
2022-12-25T23:41:51.243Z,11.93
2022-12-25T23:46:56.668Z,11.63
2022-12-25T23:52:00.134Z,10.77
2022-12-25T23:57:03.530Z,11.30
